Kythira, Greece
Current Conditions -  °F | °C
As of 2:20 AM on Tuesday 23 Dec 2014 (Local Time) from LGKL Reporting Station
NA  
Wind Chill: 42°   Ceiling: NA
Heat Index: 45°   Visibility: NA
Dew Point: 41°   Wind: 5mph
Humidity: 87%   Direction: 310°NW
Pressure: 30.33"   Gusts: NA
Location:  36.26°N, 23°E
Report Text: LGKL 222320Z AUTO 31004KT //// // ////// 07/05 Q1027 RE//
Loading
Personal Weather Stations






























Interactive Weather Map New forecast layout! Learn more

10-Day Weather Forecast

Advertisements
Track Severe Weather on mobile